createdAt,value
2022-11-10T07:44:58.014Z,14.66
2022-11-10T07:47:24.762Z,14.70
2022-11-10T07:49:51.346Z,14.73
2022-11-10T07:52:18.051Z,14.75
2022-11-10T07:54:44.729Z,14.79
2022-11-10T07:57:11.297Z,14.80
2022-11-10T07:59:37.877Z,14.82
2022-11-10T08:02:04.547Z,14.85
2022-11-10T08:04:31.247Z,14.91
2022-11-10T08:06:59.025Z,14.95
2022-11-10T08:09:32.207Z,14.96
2022-11-10T08:11:58.857Z,14.94
2022-11-10T08:14:26.180Z,14.92
2022-11-10T08:16:52.862Z,14.94
2022-11-10T08:19:30.440Z,14.99
2022-11-10T08:21:57.038Z,15.01
2022-11-10T08:24:23.797Z,15.04
2022-11-10T08:26:50.408Z,15.05
2022-11-10T08:29:23.708Z,15.07
2022-11-10T08:31:51.119Z,15.08
2022-11-10T08:34:18.067Z,15.12
2022-11-10T08:36:45.002Z,15.16
2022-11-10T08:39:13.286Z,15.15
2022-11-10T08:41:44.020Z,15.14
2022-11-10T08:44:11.138Z,15.14
2022-11-10T08:46:38.323Z,15.14
2022-11-10T08:49:04.884Z,15.15
2022-11-10T08:51:36.290Z,15.19
2022-11-10T08:54:05.489Z,15.20
2022-11-10T08:56:32.096Z,15.22
2022-11-10T08:58:58.728Z,15.25
2022-11-10T09:01:25.320Z,15.26
2022-11-10T09:03:52.037Z,15.30
2022-11-10T09:06:18.639Z,15.31
2022-11-10T09:08:45.282Z,15.31
2022-11-10T09:11:11.859Z,15.32
2022-11-10T09:13:38.445Z,15.33
2022-11-10T09:16:05.724Z,15.31
2022-11-10T09:18:32.817Z,15.33
2022-11-10T09:20:59.612Z,15.34
2022-11-10T09:23:26.547Z,15.36
2022-11-10T09:25:54.720Z,15.37
2022-11-10T09:28:21.801Z,15.35
2022-11-10T09:30:49.726Z,15.36
2022-11-10T09:33:16.767Z,15.39
2022-11-10T09:35:43.410Z,15.41
2022-11-10T09:38:10.521Z,15.43
2022-11-10T09:40:55.867Z,15.45
2022-11-10T09:43:37.525Z,15.45
2022-11-10T09:46:11.218Z,15.45
2022-11-10T09:48:42.933Z,15.48
2022-11-10T09:51:22.402Z,15.49
2022-11-10T09:53:51.923Z,15.49
2022-11-10T09:56:21.686Z,15.48
2022-11-10T09:58:48.412Z,15.48
2022-11-10T10:01:34.802Z,15.51
2022-11-10T10:04:20.397Z,15.52
2022-11-10T10:07:11.989Z,15.54
2022-11-10T10:09:50.115Z,15.59
2022-11-10T10:12:37.765Z,15.62
2022-11-10T10:15:25.663Z,15.62
2022-11-10T10:17:52.484Z,15.64
2022-11-10T10:20:27.561Z,15.67
2022-11-10T10:23:20.859Z,15.70
2022-11-10T10:25:53.366Z,15.74
2022-11-10T10:28:23.377Z,15.77
2022-11-10T10:30:50.336Z,15.78
2022-11-10T10:33:21.598Z,15.77
2022-11-10T10:35:49.488Z,15.77
2022-11-10T10:38:22.408Z,15.77
2022-11-10T10:40:50.587Z,15.76
2022-11-10T10:43:17.207Z,15.77
2022-11-10T10:45:43.938Z,15.77
2022-11-10T10:48:29.392Z,15.75
2022-11-10T10:50:56.030Z,15.76
2022-11-10T10:53:23.815Z,15.76
2022-11-10T10:55:53.284Z,15.77
2022-11-10T10:58:22.024Z,15.76
2022-11-10T11:01:09.151Z,15.74
2022-11-10T11:03:41.138Z,15.72
2022-11-10T11:06:18.669Z,15.73
2022-11-10T11:08:58.333Z,15.70
2022-11-10T11:11:36.928Z,15.69
2022-11-10T11:14:14.079Z,15.72
2022-11-10T11:17:00.955Z,15.74
2022-11-10T11:19:30.796Z,15.78
2022-11-10T11:22:00.551Z,15.78
2022-11-10T11:24:41.777Z,15.81
2022-11-10T11:27:17.156Z,15.86
2022-11-10T11:29:49.729Z,15.90
2022-11-10T11:32:32.838Z,15.94
2022-11-10T11:35:20.148Z,16.00
2022-11-10T11:38:01.773Z,16.05
2022-11-10T11:40:35.063Z,16.09
2022-11-10T11:43:14.381Z,16.11
2022-11-10T11:45:44.291Z,16.17
2022-11-10T11:48:36.678Z,16.21
2022-11-10T11:51:12.432Z,16.23
2022-11-10T11:53:51.633Z,16.22
2022-11-10T11:56:39.928Z,16.25
2022-11-10T11:59:41.505Z,16.20
2022-11-10T12:02:28.955Z,16.24
2022-11-10T12:05:04.530Z,16.29
2022-11-10T12:07:43.258Z,16.31
2022-11-10T12:10:15.789Z,16.32
2022-11-10T12:13:02.343Z,16.35
2022-11-10T12:15:28.996Z,16.37
2022-11-10T12:17:58.349Z,16.40
2022-11-10T12:20:34.009Z,16.45
2022-11-10T12:23:00.571Z,16.46
2022-11-10T12:25:49.394Z,16.51
2022-11-10T12:28:22.907Z,16.50
2022-11-10T12:30:51.613Z,16.52
2022-11-10T12:33:18.287Z,16.55
2022-11-10T12:35:46.281Z,16.55
2022-11-10T12:38:26.213Z,16.55
2022-11-10T12:40:57.878Z,16.55
2022-11-10T12:43:44.200Z,16.55
2022-11-10T12:46:12.809Z,16.55
2022-11-10T12:48:45.403Z,16.54
2022-11-10T12:51:25.935Z,16.52
2022-11-10T12:53:53.043Z,16.53
2022-11-10T12:56:25.546Z,16.52
2022-11-10T12:59:10.653Z,16.52
2022-11-10T13:01:43.117Z,16.51
2022-11-10T13:04:13.619Z,16.51
2022-11-10T13:06:47.182Z,16.52
2022-11-10T13:09:23.391Z,16.51
2022-11-10T13:12:08.536Z,16.52
2022-11-10T13:14:35.553Z,16.53
2022-11-10T13:17:02.192Z,16.54
2022-11-10T13:19:30.029Z,16.52
2022-11-10T13:22:06.212Z,16.53
2022-11-10T13:24:43.495Z,16.56
2022-11-10T13:27:11.924Z,16.56
2022-11-10T13:29:47.728Z,16.56
2022-11-10T13:32:14.511Z,16.54
2022-11-10T13:34:42.248Z,16.55
2022-11-10T13:37:28.149Z,16.54
2022-11-10T13:40:14.715Z,16.57
2022-11-10T13:42:46.973Z,16.58
2022-11-10T13:45:32.751Z,16.58
2022-11-10T13:48:11.562Z,16.58
2022-11-10T13:51:04.585Z,16.58
2022-11-10T13:53:51.141Z,16.58
2022-11-10T13:56:33.008Z,16.58
2022-11-10T13:59:04.470Z,16.58
2022-11-10T14:01:31.251Z,16.58
2022-11-10T14:04:02.511Z,16.59
2022-11-10T14:06:40.860Z,16.58
2022-11-10T14:09:16.384Z,16.59
2022-11-10T14:11:49.748Z,16.57
2022-11-10T14:14:16.906Z,16.57
2022-11-10T14:16:43.957Z,16.58
2022-11-10T14:19:28.262Z,16.57
2022-11-10T14:22:01.073Z,16.56
2022-11-10T14:24:29.442Z,16.57
2022-11-10T14:27:00.465Z,16.56
2022-11-10T14:29:32.043Z,16.55
2022-11-10T14:32:00.636Z,16.57
2022-11-10T14:34:28.093Z,16.60
2022-11-10T14:36:56.034Z,16.62
2022-11-10T14:39:36.499Z,16.66
2022-11-10T14:42:04.756Z,16.67
2022-11-10T14:44:33.200Z,16.66
2022-11-10T14:47:10.487Z,16.66
2022-11-10T14:49:44.862Z,16.66
2022-11-10T14:52:13.835Z,16.70
2022-11-10T14:54:44.217Z,16.70
2022-11-10T14:57:16.428Z,16.68
2022-11-10T14:59:43.733Z,16.66
2022-11-10T15:02:14.315Z,16.65
2022-11-10T15:04:45.771Z,16.69
2022-11-10T15:07:14.756Z,16.76
2022-11-10T15:10:01.839Z,16.81
2022-11-10T15:12:29.345Z,16.76
2022-11-10T15:14:59.440Z,16.75
2022-11-10T15:17:36.649Z,16.73
2022-11-10T15:20:04.164Z,16.67
2022-11-10T15:22:34.696Z,16.65
2022-11-10T15:25:08.239Z,16.67
2022-11-10T15:27:35.678Z,16.67
2022-11-10T15:30:03.664Z,16.63
2022-11-10T15:32:34.765Z,16.59
2022-11-10T15:35:10.746Z,16.56
2022-11-10T15:37:38.129Z,16.57
2022-11-10T15:40:15.415Z,16.53
2022-11-10T15:42:42.460Z,16.56
2022-11-10T15:45:09.623Z,16.53
2022-11-10T15:47:36.817Z,16.52
2022-11-10T15:50:04.186Z,16.52
2022-11-10T15:52:32.248Z,16.51
2022-11-10T15:54:59.672Z,16.52
2022-11-10T15:57:27.125Z,16.52
2022-11-10T15:59:54.493Z,16.52
2022-11-10T16:02:23.695Z,16.51
2022-11-10T16:04:57.024Z,16.49
2022-11-10T16:07:27.225Z,16.47
2022-11-10T16:09:54.798Z,16.46
2022-11-10T16:12:23.096Z,16.50
2022-11-10T16:14:54.377Z,16.49
2022-11-10T16:17:23.415Z,16.48
2022-11-10T16:19:50.990Z,16.47
2022-11-10T16:22:18.431Z,16.45
2022-11-10T16:24:46.478Z,16.44
2022-11-10T16:27:15.423Z,16.43
2022-11-10T16:29:43.660Z,16.42
2022-11-10T16:32:12.477Z,16.40
2022-11-10T16:34:40.483Z,16.38
2022-11-10T16:37:09.738Z,16.40
2022-11-10T16:39:37.216Z,16.34
2022-11-10T16:42:04.614Z,16.32
2022-11-10T16:44:34.362Z,16.32
2022-11-10T16:47:04.073Z,16.37
2022-11-10T16:49:34.775Z,16.33
2022-11-10T16:52:05.128Z,16.36
2022-11-10T16:54:32.506Z,16.36
2022-11-10T16:57:00.064Z,16.32
2022-11-10T16:59:27.507Z,16.23
2022-11-10T17:01:55.815Z,16.25
2022-11-10T17:04:23.238Z,16.25
2022-11-10T17:06:50.687Z,16.26
2022-11-10T17:09:27.486Z,16.28
2022-11-10T17:11:58.152Z,16.28
2022-11-10T17:14:25.476Z,16.26
2022-11-10T17:16:52.754Z,16.27
2022-11-10T17:19:24.072Z,16.28
2022-11-10T17:21:53.912Z,16.26
2022-11-10T17:24:21.871Z,16.25
2022-11-10T17:26:49.304Z,16.24
2022-11-10T17:29:21.508Z,16.25
2022-11-10T17:31:50.734Z,16.19
2022-11-10T17:34:18.201Z,16.19
2022-11-10T17:36:45.425Z,16.21
2022-11-10T17:39:16.695Z,16.24
2022-11-10T17:41:44.038Z,16.25
2022-11-10T17:44:14.019Z,16.25
2022-11-10T17:46:42.101Z,16.29
2022-11-10T17:49:09.708Z,16.32
2022-11-10T17:51:37.699Z,16.34
2022-11-10T17:54:06.981Z,16.37
2022-11-10T17:56:37.223Z,16.38
2022-11-10T17:59:04.481Z,16.39
2022-11-10T18:01:31.903Z,16.41
2022-11-10T18:03:59.876Z,16.40
2022-11-10T18:06:28.297Z,16.42
2022-11-10T18:08:55.557Z,16.46
2022-11-10T18:11:22.899Z,16.46
2022-11-10T18:13:50.490Z,16.45
2022-11-10T18:16:18.060Z,16.43
2022-11-10T18:18:45.453Z,16.47
2022-11-10T18:21:14.128Z,16.45
2022-11-10T18:23:43.358Z,16.43
2022-11-10T18:26:12.260Z,16.41
2022-11-10T18:28:40.359Z,16.39
2022-11-10T18:31:08.731Z,16.40
2022-11-10T18:33:40.551Z,16.42
2022-11-10T18:36:09.355Z,16.42
2022-11-10T18:38:38.509Z,16.41
2022-11-10T18:41:26.486Z,16.39
2022-11-10T18:43:53.854Z,16.42
2022-11-10T18:46:21.312Z,16.43
2022-11-10T18:48:48.710Z,16.43
2022-11-10T18:51:18.936Z,16.43
2022-11-10T18:53:46.200Z,16.43
2022-11-10T18:56:14.793Z,16.42
2022-11-10T18:58:42.386Z,16.39
2022-11-10T19:01:10.942Z,16.39
2022-11-10T19:03:38.291Z,16.39
2022-11-10T19:06:05.903Z,16.36
2022-11-10T19:08:33.437Z,16.37
2022-11-10T19:11:00.802Z,16.36
2022-11-10T19:13:28.061Z,16.38
2022-11-10T19:15:57.165Z,16.42
2022-11-10T19:18:24.572Z,16.43
2022-11-10T19:20:51.828Z,16.45
2022-11-10T19:23:18.986Z,16.45
2022-11-10T19:25:46.272Z,16.45
2022-11-10T19:28:13.288Z,16.45
2022-11-10T19:30:40.657Z,16.45
2022-11-10T19:33:08.775Z,16.45
2022-11-10T19:35:42.488Z,16.45
2022-11-10T19:38:09.762Z,16.45
2022-11-10T19:40:39.618Z,16.44
2022-11-10T19:43:06.613Z,16.44
2022-11-10T19:45:34.566Z,16.46
2022-11-10T19:48:01.887Z,16.46
2022-11-10T19:50:29.084Z,16.43
2022-11-10T19:52:56.270Z,16.39
2022-11-10T19:55:23.379Z,16.37
2022-11-10T19:57:50.509Z,16.37
2022-11-10T20:00:17.949Z,16.36
2022-11-10T20:02:45.828Z,16.36
2022-11-10T20:05:17.601Z,16.42
2022-11-10T20:07:54.911Z,16.45
2022-11-10T20:10:22.098Z,16.47
2022-11-10T20:12:49.346Z,16.50
2022-11-10T20:15:16.677Z,16.53
2022-11-10T20:17:44.094Z,16.53
2022-11-10T20:20:12.111Z,16.55
2022-11-10T20:22:39.560Z,16.57
2022-11-10T20:25:06.934Z,16.58
2022-11-10T20:27:34.361Z,16.59
2022-11-10T20:30:01.574Z,16.59
2022-11-10T20:32:28.899Z,16.59
2022-11-10T20:34:55.994Z,16.63
2022-11-10T20:37:23.442Z,16.65
2022-11-10T20:39:50.623Z,16.68
2022-11-10T20:42:18.077Z,16.67
2022-11-10T20:44:48.056Z,16.71
2022-11-10T20:47:15.058Z,16.68
2022-11-10T20:49:42.341Z,16.67
2022-11-10T20:52:09.427Z,16.70
2022-11-10T20:54:38.889Z,16.72
2022-11-10T20:57:06.115Z,16.77
2022-11-10T20:59:33.729Z,16.77
2022-11-10T21:02:01.025Z,16.74
2022-11-10T21:04:28.313Z,16.72
2022-11-10T21:06:55.507Z,16.75
2022-11-10T21:09:22.740Z,16.75
2022-11-10T21:12:00.236Z,16.73
2022-11-10T21:14:30.323Z,16.72
2022-11-10T21:17:00.005Z,16.72
2022-11-10T21:19:27.273Z,16.72
2022-11-10T21:21:54.504Z,16.73
2022-11-10T21:24:21.602Z,16.77
2022-11-10T21:26:49.517Z,16.75
2022-11-10T21:29:16.652Z,16.73
2022-11-10T21:31:44.747Z,16.73
2022-11-10T21:34:12.155Z,16.75
2022-11-10T21:36:39.978Z,16.72
2022-11-10T21:39:07.296Z,16.73
2022-11-10T21:41:34.251Z,16.72
2022-11-10T21:44:01.287Z,16.72
2022-11-10T21:46:28.260Z,16.73
2022-11-10T21:48:55.409Z,16.72
2022-11-10T21:51:22.369Z,16.75
2022-11-10T21:53:49.682Z,16.73
2022-11-10T21:56:16.572Z,16.75
2022-11-10T21:58:43.846Z,16.76
2022-11-10T22:01:13.733Z,16.76
2022-11-10T22:03:41.053Z,16.76
2022-11-10T22:06:09.022Z,16.76
2022-11-10T22:08:36.422Z,16.75
2022-11-10T22:11:12.676Z,16.77
2022-11-10T22:13:48.681Z,16.78
2022-11-10T22:16:34.701Z,16.76
2022-11-10T22:19:01.682Z,16.73
2022-11-10T22:21:28.522Z,16.71
2022-11-10T22:24:04.755Z,16.72
2022-11-10T22:26:31.676Z,16.76
2022-11-10T22:28:58.688Z,16.76
2022-11-10T22:31:25.441Z,16.77
2022-11-10T22:33:52.208Z,16.76
2022-11-10T22:36:19.724Z,16.75
2022-11-10T22:38:46.780Z,16.75
2022-11-10T22:41:24.282Z,16.75
2022-11-10T22:44:00.755Z,16.78
2022-11-10T22:46:27.618Z,16.76
2022-11-10T22:48:54.520Z,16.78
2022-11-10T22:51:21.736Z,16.78
2022-11-10T22:53:48.739Z,16.78
2022-11-10T22:56:15.453Z,16.81
2022-11-10T22:58:42.256Z,16.83
2022-11-10T23:01:10.151Z,16.81
2022-11-10T23:03:37.319Z,16.81
2022-11-10T23:06:04.425Z,16.80
2022-11-10T23:08:31.654Z,16.80
2022-11-10T23:11:00.610Z,16.83
2022-11-10T23:13:27.655Z,16.84
2022-11-10T23:15:58.810Z,16.83
2022-11-10T23:18:26.165Z,16.81
2022-11-10T23:21:00.755Z,16.79
2022-11-10T23:23:28.275Z,16.80
2022-11-10T23:25:55.955Z,16.82
2022-11-10T23:28:22.681Z,16.81
2022-11-10T23:30:49.359Z,16.84
2022-11-10T23:33:16.025Z,16.85
2022-11-10T23:35:42.686Z,16.85
2022-11-10T23:38:09.499Z,16.87
2022-11-10T23:40:36.138Z,16.86
2022-11-10T23:43:02.785Z,16.87
2022-11-10T23:45:46.169Z,16.90
2022-11-10T23:48:16.100Z,16.95
2022-11-10T23:50:43.114Z,16.95
2022-11-10T23:53:09.833Z,16.94
2022-11-10T23:55:36.659Z,16.94
2022-11-10T23:58:03.784Z,16.91
